Time;durP1;ratioP1;P1;durP2;ratioP2;P2;SDS_P1;SDS_P2;PMS_P1;PMS_P2;Temp;Humidity;BMP_temperature;BMP_pressure;BME280_temperature;BME280_humidity;BME280_pressure;Samples;Min_cycle;Max_cycle;Signal;HPM_P1;HPM_P2
2021/03/20 00:01:10;;;;;;;;;;;4.50;76.30;;;;;;5074717;28;19962;-76
2021/03/20 00:03:35;;;;;;;;;;;4.40;76.40;;;;;;5093202;28;19912;-76
2021/03/20 00:06:01;;;;;;;;;;;4.30;76.50;;;;;;5092606;28;19915;-76
2021/03/20 00:08:27;;;;;;;;;;;4.40;76.80;;;;;;5092448;28;19923;-76
2021/03/20 00:10:53;;;;;;;;;;;4.30;76.90;;;;;;5092253;28;19959;-75
2021/03/20 00:13:19;;;;;;;;;;;4.30;77.00;;;;;;5092923;28;19908;-76
2021/03/20 00:15:45;;;;;;;;;;;4.30;77.00;;;;;;5074005;28;19916;-76
2021/03/20 00:18:11;;;;;;;;;;;4.30;77.00;;;;;;5094465;28;19915;-76
2021/03/20 00:20:38;;;;;;;;;;;4.40;76.90;;;;;;5101520;28;19927;-76
2021/03/20 00:23:04;;;;;;;;;;;4.30;77.00;;;;;;5092957;28;19908;-76
2021/03/20 00:25:30;;;;;;;;;;;4.30;77.00;;;;;;5074444;28;20311;-76
2021/03/20 00:27:56;;;;;;;;;;;4.30;77.00;;;;;;5093010;28;20006;-75
2021/03/20 00:30:22;;;;;;;;;;;4.20;77.10;;;;;;5094293;28;20340;-76
2021/03/20 00:32:47;;;;;;;;;;;4.10;77.20;;;;;;5078977;28;19912;-76
2021/03/20 00:35:14;;;;;;;;;;;4.10;77.30;;;;;;5078208;28;19952;-76
2021/03/20 00:37:39;;;;;;;;;;;4.10;77.40;;;;;;5096740;28;20365;-76
2021/03/20 00:40:07;;;;;;;;;;;4.10;77.50;;;;;;5095651;28;19920;-76
2021/03/20 00:42:32;;;;;;;;;;;4.00;77.40;;;;;;5095787;28;19951;-76
2021/03/20 00:44:57;;;;;;;;;;;4.00;77.40;;;;;;5078047;28;20336;-76
2021/03/20 00:47:23;;;;;;;;;;;4.00;77.40;;;;;;5095724;28;19912;-76
2021/03/20 00:49:48;;;;;;;;;;;4.00;77.50;;;;;;5095526;28;20556;-76
2021/03/20 00:52:14;;;;;;;;;;;4.00;77.50;;;;;;5096330;28;19912;-76
2021/03/20 00:54:39;;;;;;;;;;;3.90;77.40;;;;;;5095531;28;19946;-76
2021/03/20 00:57:05;;;;;;;;;;;3.90;77.40;;;;;;5096136;28;19912;-76
2021/03/20 00:59:31;;;;;;;;;;;3.90;77.60;;;;;;5095423;28;19920;-76
2021/03/20 01:01:56;;;;;;;;;;;3.80;77.70;;;;;;5096541;28;19912;-76
2021/03/20 01:04:22;;;;;;;;;;;3.80;78.60;;;;;;5100019;28;19908;-76
2021/03/20 01:06:47;;;;;;;;;;;3.80;78.10;;;;;;5059509;28;19922;-76
2021/03/20 01:09:13;;;;;;;;;;;3.80;78.30;;;;;;5062966;28;20439;-76
2021/03/20 01:11:38;;;;;;;;;;;3.70;78.30;;;;;;5084751;28;19991;-76
2021/03/20 01:14:04;;;;;;;;;;;3.70;78.60;;;;;;5099291;28;19919;-76
2021/03/20 01:16:29;;;;;;;;;;;3.70;78.70;;;;;;5077868;28;19952;-76
2021/03/20 01:18:55;;;;;;;;;;;3.70;78.80;;;;;;5077711;28;19982;-76
2021/03/20 01:21:21;;;;;;;;;;;3.70;78.80;;;;;;5096254;28;19995;-76
2021/03/20 01:23:46;;;;;;;;;;;3.80;78.90;;;;;;5095658;28;19916;-76
2021/03/20 01:26:12;;;;;;;;;;;3.80;78.80;;;;;;5096108;28;19908;-76
2021/03/20 01:28:39;;;;;;;;;;;3.80;78.80;;;;;;5095655;28;19908;-76
2021/03/20 01:31:05;;;;;;;;;;;3.80;78.70;;;;;;5095816;28;19912;-76
2021/03/20 01:33:30;;;;;;;;;;;3.80;78.70;;;;;;5077368;28;20010;-76
2021/03/20 01:35:56;;;;;;;;;;;3.70;78.80;;;;;;5095534;28;20011;-75
2021/03/20 01:38:22;;;;;;;;;;;3.70;78.90;;;;;;5076848;28;20299;-76
2021/03/20 01:40:56;;;;;;;;;;;3.70;79.10;;;;;;5095225;28;19911;-76
2021/03/20 01:43:24;;;;;;;;;;;3.70;79.10;;;;;;5095541;28;19910;-76
2021/03/20 01:45:49;;;;;;;;;;;3.70;79.00;;;;;;5095250;28;19989;-76
2021/03/20 01:48:18;;;;;;;;;;;3.70;78.90;;;;;;5095519;28;20376;-76
2021/03/20 01:50:43;;;;;;;;;;;3.70;78.90;;;;;;5077240;28;19999;-76
2021/03/20 01:53:15;;;;;;;;;;;3.70;79.20;;;;;;5095331;28;20430;-76
2021/03/20 01:55:40;;;;;;;;;;;3.70;78.90;;;;;;5094960;28;20033;-76
2021/03/20 01:58:06;;;;;;;;;;;3.70;79.10;;;;;;5095609;28;19944;-76
2021/03/20 02:00:34;;;;;;;;;;;3.60;79.30;;;;;;5095099;28;19919;-76
2021/03/20 02:03:01;;;;;;;;;;;3.60;79.50;;;;;;5077260;28;19904;-76
2021/03/20 02:05:29;;;;;;;;;;;3.60;79.60;;;;;;5095278;28;19912;-76
2021/03/20 02:07:55;;;;;;;;;;;3.60;79.60;;;;;;5094484;28;19904;-76
2021/03/20 02:10:25;;;;;;;;;;;3.60;79.70;;;;;;5092797;28;19912;-76
2021/03/20 02:12:55;;;;;;;;;;;3.50;79.70;;;;;;5074996;28;19912;-76
2021/03/20 02:15:27;;;;;;;;;;;3.50;79.60;;;;;;5094196;28;20300;-76
2021/03/20 02:18:03;;;;;;;;;;;3.50;79.80;;;;;;5085868;28;19904;-76
2021/03/20 02:20:38;;;;;;;;;;;3.40;79.90;;;;;;5076625;28;19912;-76
2021/03/20 02:23:10;;;;;;;;;;;3.40;79.90;;;;;;5093748;28;19908;-76
2021/03/20 02:25:54;;;;;;;;;;;3.30;80.10;;;;;;5096670;28;20284;-76
2021/03/20 02:28:22;;;;;;;;;;;3.30;80.10;;;;;;5084115;28;19908;-76
2021/03/20 02:31:06;;;;;;;;;;;3.30;80.10;;;;;;5075614;28;19911;-76
2021/03/20 02:33:47;;;;;;;;;;;3.20;80.10;;;;;;5061478;28;20333;-76
2021/03/20 02:36:31;;;;;;;;;;;3.20;80.30;;;;;;5093614;28;20361;-76
2021/03/20 02:39:01;;;;;;;;;;;3.20;80.30;;;;;;5094434;28;19911;-76
2021/03/20 02:41:32;;;;;;;;;;;3.20;80.30;;;;;;5094235;28;20458;-76
2021/03/20 02:44:00;;;;;;;;;;;3.10;80.40;;;;;;5094310;28;19954;-76
2021/03/20 02:46:36;;;;;;;;;;;3.10;80.40;;;;;;5094308;28;20288;-76
2021/03/20 02:49:04;;;;;;;;;;;3.10;80.50;;;;;;5094368;28;19915;-76
2021/03/20 02:51:38;;;;;;;;;;;3.10;80.50;;;;;;5093927;28;20353;-76
2021/03/20 02:54:10;;;;;;;;;;;3.10;80.70;;;;;;5084755;28;19903;-76
2021/03/20 02:56:40;;;;;;;;;;;3.00;80.70;;;;;;5075045;28;20388;-76
2021/03/20 02:59:11;;;;;;;;;;;3.00;80.80;;;;;;5093948;28;20389;-75
2021/03/20 03:01:38;;;;;;;;;;;3.00;81.10;;;;;;5075426;28;19938;-76
2021/03/20 03:04:05;;;;;;;;;;;3.00;81.00;;;;;;5093855;28;19908;-76
2021/03/20 03:06:36;;;;;;;;;;;3.00;81.10;;;;;;5093607;28;20377;-76
2021/03/20 03:09:07;;;;;;;;;;;2.90;81.20;;;;;;5075688;28;19919;-76
2021/03/20 03:11:42;;;;;;;;;;;2.90;81.20;;;;;;5075765;28;19915;-76
2021/03/20 03:14:07;;;;;;;;;;;2.90;81.30;;;;;;5093401;28;19908;-76
2021/03/20 03:16:44;;;;;;;;;;;2.90;81.30;;;;;;5093547;28;19915;-76
2021/03/20 03:19:11;;;;;;;;;;;2.80;81.30;;;;;;5093797;28;20309;-76
2021/03/20 03:21:40;;;;;;;;;;;2.80;81.40;;;;;;5093638;28;19908;-76
2021/03/20 03:24:06;;;;;;;;;;;2.80;81.30;;;;;;5075436;28;20342;-76
2021/03/20 03:26:34;;;;;;;;;;;2.80;81.40;;;;;;5093391;28;19908;-76
2021/03/20 03:29:08;;;;;;;;;;;2.80;81.40;;;;;;5091959;28;20365;-76
2021/03/20 03:31:36;;;;;;;;;;;2.80;81.40;;;;;;5093599;28;20357;-76
2021/03/20 03:34:06;;;;;;;;;;;2.80;81.40;;;;;;5093790;28;20300;-76
2021/03/20 03:36:43;;;;;;;;;;;2.80;81.40;;;;;;5093595;28;20270;-76
2021/03/20 03:39:15;;;;;;;;;;;2.80;81.40;;;;;;5075225;28;20319;-76
2021/03/20 03:41:40;;;;;;;;;;;2.80;81.40;;;;;;5093690;28;19908;-76
2021/03/20 03:44:07;;;;;;;;;;;2.70;81.50;;;;;;5093036;28;19918;-76
2021/03/20 03:46:35;;;;;;;;;;;2.70;81.50;;;;;;5093504;28;19910;-76
2021/03/20 03:49:03;;;;;;;;;;;2.70;81.70;;;;;;5080223;28;19908;-76
2021/03/20 03:51:29;;;;;;;;;;;2.70;81.70;;;;;;5075482;28;19999;-76
2021/03/20 03:53:54;;;;;;;;;;;2.60;81.70;;;;;;5075113;28;19998;-76
2021/03/20 03:56:32;;;;;;;;;;;2.60;81.80;;;;;;5074794;28;19916;-76
2021/03/20 03:58:57;;;;;;;;;;;2.60;82.00;;;;;;5092991;28;20361;-76
2021/03/20 04:01:41;;;;;;;;;;;2.50;82.00;;;;;;5092572;28;19915;-76
2021/03/20 04:04:13;;;;;;;;;;;2.50;82.00;;;;;;5077815;28;19912;-76
2021/03/20 04:06:38;;;;;;;;;;;2.50;81.90;;;;;;5093190;28;20392;-76
2021/03/20 04:09:03;;;;;;;;;;;2.50;81.90;;;;;;5095900;28;20015;-76
2021/03/20 04:11:42;;;;;;;;;;;2.50;81.90;;;;;;5096711;28;20690;-76
2021/03/20 04:14:26;;;;;;;;;;;2.50;81.90;;;;;;5096268;28;19951;-76
2021/03/20 04:17:04;;;;;;;;;;;2.50;81.90;;;;;;5077757;28;20289;-76
2021/03/20 04:19:33;;;;;;;;;;;2.50;81.80;;;;;;5098522;28;20262;-77
2021/03/20 04:22:06;;;;;;;;;;;2.50;81.80;;;;;;5093162;28;19943;-76
2021/03/20 04:24:34;;;;;;;;;;;2.40;81.80;;;;;;5096768;28;19953;-76
2021/03/20 04:27:02;;;;;;;;;;;2.40;82.00;;;;;;5097011;28;19916;-76
2021/03/20 04:29:33;;;;;;;;;;;2.40;82.00;;;;;;5096821;28;19908;-76
2021/03/20 04:32:02;;;;;;;;;;;2.30;82.00;;;;;;5096565;28;19914;-76
2021/03/20 04:34:35;;;;;;;;;;;2.30;82.20;;;;;;5096816;28;20352;-76
2021/03/20 04:37:09;;;;;;;;;;;2.20;82.10;;;;;;5096741;28;19912;-76
2021/03/20 04:39:37;;;;;;;;;;;2.20;82.00;;;;;;5096975;28;19904;-76
2021/03/20 04:42:03;;;;;;;;;;;2.20;81.90;;;;;;5096730;28;20027;-76
2021/03/20 04:44:28;;;;;;;;;;;2.20;81.90;;;;;;5096689;28;19957;-76
2021/03/20 04:46:54;;;;;;;;;;;2.20;81.80;;;;;;5095989;28;19912;-76
2021/03/20 04:49:19;;;;;;;;;;;2.10;81.80;;;;;;5078224;28;19912;-76
2021/03/20 04:51:51;;;;;;;;;;;2.10;81.90;;;;;;5096333;28;19908;-76
2021/03/20 04:54:18;;;;;;;;;;;2.10;81.80;;;;;;5096564;28;19958;-76
2021/03/20 04:56:51;;;;;;;;;;;2.10;81.80;;;;;;5096692;28;19916;-76
2021/03/20 04:59:23;;;;;;;;;;;2.10;81.80;;;;;;5096183;28;19915;-76
2021/03/20 05:01:51;;;;;;;;;;;2.00;81.70;;;;;;5077708;28;20384;-76
2021/03/20 05:04:20;;;;;;;;;;;2.00;81.80;;;;;;5096706;28;19922;-76
2021/03/20 05:06:48;;;;;;;;;;;1.90;81.80;;;;;;5077433;28;19951;-76
2021/03/20 05:09:18;;;;;;;;;;;1.90;81.90;;;;;;5096297;28;19912;-76
2021/03/20 05:11:43;;;;;;;;;;;1.90;81.90;;;;;;5096260;28;19908;-76
2021/03/20 05:14:13;;;;;;;;;;;1.90;82.00;;;;;;5096156;28;20276;-76
2021/03/20 05:16:46;;;;;;;;;;;1.90;81.70;;;;;;5096084;28;20019;-76
2021/03/20 05:19:12;;;;;;;;;;;2.00;81.60;;;;;;5095960;28;19912;-76
2021/03/20 05:21:40;;;;;;;;;;;1.90;81.50;;;;;;5095775;28;19908;-76
2021/03/20 05:24:06;;;;;;;;;;;1.90;81.50;;;;;;5077720;28;19943;-76
2021/03/20 05:26:32;;;;;;;;;;;1.80;81.50;;;;;;5095018;28;19908;-76
2021/03/20 05:28:58;;;;;;;;;;;1.80;81.60;;;;;;5096031;28;20264;-76
2021/03/20 05:31:25;;;;;;;;;;;1.70;81.70;;;;;;5094123;28;19942;-76
2021/03/20 05:33:51;;;;;;;;;;;1.70;81.80;;;;;;5095259;28;19908;-76
2021/03/20 05:36:16;;;;;;;;;;;1.70;81.90;;;;;;5076729;28;19941;-76
2021/03/20 05:38:44;;;;;;;;;;;1.70;81.80;;;;;;5076954;28;20362;-76
2021/03/20 05:41:12;;;;;;;;;;;1.70;81.70;;;;;;5096136;28;20308;-76
2021/03/20 05:43:46;;;;;;;;;;;1.70;81.50;;;;;;5097164;28;19904;-76
2021/03/20 05:46:25;;;;;;;;;;;1.70;81.50;;;;;;5094269;28;19983;-76
2021/03/20 05:48:53;;;;;;;;;;;1.70;81.40;;;;;;5094127;28;19991;-76
2021/03/20 05:51:31;;;;;;;;;;;1.70;81.40;;;;;;5094963;28;19908;-76
2021/03/20 05:54:15;;;;;;;;;;;1.70;81.40;;;;;;5095655;28;19927;-76
2021/03/20 05:56:46;;;;;;;;;;;1.60;82.00;;;;;;5094960;28;19948;-76
2021/03/20 05:59:19;;;;;;;;;;;1.60;81.40;;;;;;5095322;28;19908;-76
2021/03/20 06:02:03;;;;;;;;;;;1.60;81.40;;;;;;5095087;28;19990;-76
2021/03/20 06:05:04;;;;;;;;;;;1.60;81.30;;;;;;5095312;28;19914;-76
2021/03/20 06:07:39;;;;;;;;;;;1.60;81.20;;;;;;5031476;28;19913;-76
2021/03/20 06:10:07;;;;;;;;;;;1.60;81.10;;;;;;5077098;28;19912;-76
2021/03/20 06:12:33;;;;;;;;;;;1.60;81.10;;;;;;5094294;28;19908;-76
2021/03/20 06:15:08;;;;;;;;;;;1.60;81.10;;;;;;5095245;28;19916;-76
2021/03/20 06:17:33;;;;;;;;;;;1.60;81.00;;;;;;5075986;28;19984;-76
2021/03/20 06:20:14;;;;;;;;;;;1.70;80.90;;;;;;5094935;28;19912;-76
2021/03/20 06:22:59;;;;;;;;;;;1.70;80.70;;;;;;5076457;28;19904;-78
2021/03/20 06:25:43;;;;;;;;;;;1.80;80.50;;;;;;5075899;28;20300;-78
2021/03/20 06:28:09;;;;;;;;;;;1.80;80.20;;;;;;5093985;28;19938;-78
2021/03/20 06:30:37;;;;;;;;;;;1.90;80.00;;;;;;5076189;28;19911;-78
2021/03/20 06:33:12;;;;;;;;;;;1.90;79.70;;;;;;5093665;28;20375;-78
2021/03/20 06:35:40;;;;;;;;;;;1.90;79.50;;;;;;5086799;28;19912;-78
2021/03/20 06:38:07;;;;;;;;;;;1.90;79.40;;;;;;5075881;28;20353;-78
2021/03/20 06:41:05;;;;;;;;;;;2.00;79.30;;;;;;5094276;28;19950;-78
2021/03/20 06:43:33;;;;;;;;;;;2.00;79.00;;;;;;5065742;28;19908;-79
2021/03/20 06:45:59;;;;;;;;;;;2.00;79.00;;;;;;5087355;28;19934;-78
2021/03/20 06:48:28;;;;;;;;;;;2.10;78.90;;;;;;5094098;28;20315;-81
2021/03/20 06:50:55;;;;;;;;;;;2.10;78.60;;;;;;5094460;28;19918;-81
2021/03/20 06:53:30;;;;;;;;;;;2.20;78.50;;;;;;5072845;28;20296;-79
2021/03/20 06:55:56;;;;;;;;;;;2.20;78.20;;;;;;5074138;28;19909;-81
2021/03/20 06:58:32;;;;;;;;;;;2.30;77.90;;;;;;5082403;28;19904;-81
2021/03/20 07:01:04;;;;;;;;;;;2.30;77.80;;;;;;5075915;28;19908;-83
2021/03/20 07:03:49;;;;;;;;;;;2.40;77.60;;;;;;5076253;28;19904;-79
2021/03/20 07:06:33;;;;;;;;;;;2.40;77.20;;;;;;5094433;28;19904;-78
2021/03/20 07:08:59;;;;;;;;;;;2.40;77.00;;;;;;5094032;28;19908;-79
2021/03/20 07:11:32;;;;;;;;;;;2.50;77.00;;;;;;5094176;28;19914;-78
2021/03/20 07:13:59;;;;;;;;;;;2.40;76.90;;;;;;5093565;28;19970;-78
2021/03/20 07:16:28;;;;;;;;;;;2.40;77.10;;;;;;5093802;28;19912;-80
2021/03/20 07:18:55;;;;;;;;;;;2.30;77.20;;;;;;5075463;28;19998;-81
2021/03/20 07:21:23;;;;;;;;;;;2.30;77.40;;;;;;5094083;28;19931;-82
2021/03/20 07:24:15;;;;;;;;;;;2.30;77.40;;;;;;5091019;28;19904;-75
2021/03/20 07:27:07;;;;;;;;;;;2.30;77.40;;;;;;5090548;28;19957;-76
2021/03/20 07:29:38;;;;;;;;;;;2.40;77.40;;;;;;5067449;28;20337;-75
2021/03/20 07:32:04;;;;;;;;;;;2.50;77.10;;;;;;5081868;28;20352;-76
2021/03/20 07:34:32;;;;;;;;;;;2.60;76.70;;;;;;5093546;28;19912;-76
2021/03/20 07:37:11;;;;;;;;;;;2.70;76.50;;;;;;5075271;28;19957;-76
2021/03/20 07:39:50;;;;;;;;;;;2.80;76.50;;;;;;5092181;28;20313;-76
2021/03/20 07:42:30;;;;;;;;;;;2.90;75.80;;;;;;5092915;28;19968;-75
2021/03/20 07:45:01;;;;;;;;;;;3.00;75.40;;;;;;5092957;28;20007;-76
2021/03/20 07:47:28;;;;;;;;;;;3.10;75.50;;;;;;5075306;28;19908;-76
2021/03/20 07:50:08;;;;;;;;;;;3.20;75.30;;;;;;5092916;28;19912;-76
2021/03/20 07:52:34;;;;;;;;;;;3.40;74.50;;;;;;5092670;28;19917;-76
2021/03/20 07:55:09;;;;;;;;;;;3.40;73.70;;;;;;5093374;28;19904;-76
2021/03/20 07:57:35;;;;;;;;;;;3.40;73.00;;;;;;5093015;28;19915;-75
2021/03/20 08:00:01;;;;;;;;;;;3.50;73.40;;;;;;5074555;28;19990;-76
2021/03/20 08:02:29;;;;;;;;;;;3.60;73.10;;;;;;5092600;28;19916;-76
2021/03/20 08:04:56;;;;;;;;;;;3.60;73.00;;;;;;5092491;28;19951;-76
2021/03/20 08:07:32;;;;;;;;;;;3.70;73.20;;;;;;5093181;28;19999;-76
2021/03/20 08:10:24;;;;;;;;;;;3.90;73.20;;;;;;5092496;28;19912;-76
2021/03/20 08:12:50;;;;;;;;;;;4.00;72.30;;;;;;5069565;28;19930;-76
2021/03/20 08:15:18;;;;;;;;;;;4.10;72.50;;;;;;5092684;28;19916;-76
2021/03/20 08:17:43;;;;;;;;;;;4.20;70.90;;;;;;5074773;28;19912;-76
2021/03/20 08:20:13;;;;;;;;;;;4.20;70.10;;;;;;5092879;28;20045;-76
2021/03/20 08:22:51;;;;;;;;;;;4.20;69.70;;;;;;5091914;28;19908;-76
2021/03/20 08:25:16;;;;;;;;;;;4.30;69.30;;;;;;5082244;28;19912;-76
2021/03/20 08:28:10;;;;;;;;;;;4.40;69.70;;;;;;5074246;28;19912;-76
2021/03/20 08:30:44;;;;;;;;;;;4.60;69.70;;;;;;5087054;28;20387;-75
2021/03/20 08:33:25;;;;;;;;;;;4.80;69.00;;;;;;5081337;28;19908;-78
2021/03/20 08:35:59;;;;;;;;;;;5.00;68.80;;;;;;5092826;28;19912;-81
2021/03/20 08:38:33;;;;;;;;;;;5.10;68.30;;;;;;5088570;28;19958;-79
2021/03/20 08:41:28;;;;;;;;;;;5.20;66.70;;;;;;5090523;28;19999;-80
2021/03/20 08:43:56;;;;;;;;;;;5.20;66.70;;;;;;5079498;28;19904;-79
2021/03/20 08:46:40;;;;;;;;;;;5.30;67.30;;;;;;5092908;28;19908;-81
2021/03/20 08:49:15;;;;;;;;;;;5.40;67.20;;;;;;5071519;28;19912;-81
2021/03/20 08:51:56;;;;;;;;;;;5.60;65.70;;;;;;5061872;28;19904;-83
2021/03/20 08:54:34;;;;;;;;;;;5.60;63.70;;;;;;5077587;28;19995;-82
2021/03/20 08:57:11;;;;;;;;;;;5.70;65.40;;;;;;5077891;28;19908;-84
2021/03/20 08:59:40;;;;;;;;;;;5.80;64.50;;;;;;5096600;28;19904;-82
2021/03/20 09:02:24;;;;;;;;;;;5.80;64.20;;;;;;5096511;28;19911;-83
2021/03/20 09:05:11;;;;;;;;;;;5.70;61.60;;;;;;5078344;28;19908;-82
2021/03/20 09:07:47;;;;;;;;;;;5.70;60.70;;;;;;5078482;28;19908;-83
2021/03/20 09:10:38;;;;;;;;;;;5.70;61.30;;;;;;5096238;28;19946;-83
2021/03/20 09:13:24;;;;;;;;;;;5.90;61.30;;;;;;5075091;28;19908;-83
2021/03/20 09:15:58;;;;;;;;;;;6.00;60.50;;;;;;5095224;28;19923;-83
2021/03/20 09:18:25;;;;;;;;;;;6.20;58.50;;;;;;5096145;28;19908;-83
2021/03/20 09:20:56;;;;;;;;;;;6.30;57.20;;;;;;5096082;28;19944;-83
2021/03/20 09:23:30;;;;;;;;;;;6.30;58.00;;;;;;5077959;28;19983;-84
2021/03/20 09:25:57;;;;;;;;;;;6.30;55.80;;;;;;5077882;28;20288;-81
2021/03/20 09:28:31;;;;;;;;;;;6.30;57.00;;;;;;5095955;28;19951;-81
2021/03/20 09:31:20;;;;;;;;;;;6.30;56.20;;;;;;5077566;28;20288;-80
2021/03/20 09:33:45;;;;;;;;;;;6.40;57.20;;;;;;5075293;28;19998;-81
2021/03/20 09:36:20;;;;;;;;;;;6.40;55.20;;;;;;5057548;28;20018;-82
2021/03/20 09:38:48;;;;;;;;;;;6.40;53.10;;;;;;5075713;28;19910;-82
2021/03/20 09:41:13;;;;;;;;;;;6.40;53.60;;;;;;5075772;28;19904;-82
2021/03/20 09:43:41;;;;;;;;;;;6.50;53.00;;;;;;5075808;28;19999;-82
2021/03/20 09:46:25;;;;;;;;;;;6.60;54.00;;;;;;5091345;28;19938;-82
2021/03/20 09:48:50;;;;;;;;;;;6.80;54.10;;;;;;5077420;28;19908;-82
2021/03/20 09:51:34;;;;;;;;;;;6.90;52.30;;;;;;5076537;28;19916;-82
2021/03/20 09:54:30;;;;;;;;;;;7.10;52.70;;;;;;5075069;28;19912;-82
2021/03/20 09:56:56;;;;;;;;;;;7.40;51.70;;;;;;5092742;28;19918;-81
2021/03/20 09:59:28;;;;;;;;;;;7.60;52.20;;;;;;5077032;28;19908;-81
2021/03/20 10:01:54;;;;;;;;;;;7.70;50.40;;;;;;5095620;28;19904;-81
2021/03/20 10:04:31;;;;;;;;;;;7.70;49.70;;;;;;5095360;28;19997;-81
2021/03/20 10:07:30;;;;;;;;;;;7.60;51.00;;;;;;5094923;28;19933;-80
2021/03/20 10:10:11;;;;;;;;;;;7.50;49.40;;;;;;5024114;28;19957;-80
2021/03/20 10:12:42;;;;;;;;;;;7.40;48.20;;;;;;5095527;28;19904;-81
2021/03/20 10:15:20;;;;;;;;;;;7.50;49.90;;;;;;5095080;28;20284;-81
2021/03/20 10:18:04;;;;;;;;;;;7.60;49.20;;;;;;5077019;28;19927;-81
2021/03/20 10:20:35;;;;;;;;;;;7.60;47.80;;;;;;5076975;28;20011;-81
2021/03/20 10:23:08;;;;;;;;;;;7.60;47.20;;;;;;5095203;28;19908;-81
2021/03/20 10:25:34;;;;;;;;;;;7.70;48.50;;;;;;5095133;28;19927;-81
2021/03/20 10:28:01;;;;;;;;;;;7.90;47.00;;;;;;5077141;28;20344;-81
2021/03/20 10:30:29;;;;;;;;;;;8.00;47.70;;;;;;5094981;28;19904;-81
2021/03/20 10:32:57;;;;;;;;;;;8.00;47.00;;;;;;5094887;28;19935;-81
2021/03/20 10:35:23;;;;;;;;;;;8.10;48.00;;;;;;5076621;28;19908;-81
2021/03/20 10:37:48;;;;;;;;;;;8.40;47.90;;;;;;5094829;28;19907;-81
2021/03/20 10:40:21;;;;;;;;;;;8.60;46.70;;;;;;5094745;28;19908;-81
2021/03/20 10:42:47;;;;;;;;;;;8.60;43.70;;;;;;5094674;28;20375;-80
2021/03/20 10:45:22;;;;;;;;;;;8.60;45.50;;;;;;5076502;28;19947;-81
2021/03/20 10:47:48;;;;;;;;;;;8.70;46.10;;;;;;5076195;28;19904;-81
2021/03/20 10:50:32;;;;;;;;;;;8.90;45.70;;;;;;5094005;28;19912;-81
2021/03/20 10:52:59;;;;;;;;;;;9.10;43.00;;;;;;5076030;28;19904;-81
2021/03/20 10:55:40;;;;;;;;;;;9.10;42.70;;;;;;5091777;28;19965;-81
2021/03/20 10:58:07;;;;;;;;;;;9.00;40.20;;;;;;5074481;28;19904;-78
2021/03/20 11:00:51;;;;;;;;;;;8.90;42.40;;;;;;5074259;28;19904;-81
2021/03/20 11:03:28;;;;;;;;;;;9.00;43.20;;;;;;5086631;28;19955;-81
2021/03/20 11:05:53;;;;;;;;;;;9.10;43.50;;;;;;5094371;28;20261;-81
2021/03/20 11:08:19;;;;;;;;;;;9.30;43.80;;;;;;5094495;28;19969;-80
2021/03/20 11:10:46;;;;;;;;;;;9.50;44.70;;;;;;5093410;28;19935;-78
2021/03/20 11:13:15;;;;;;;;;;;9.70;44.50;;;;;;5092462;28;19908;-79
2021/03/20 11:15:40;;;;;;;;;;;9.90;43.90;;;;;;5093372;28;19916;-76
2021/03/20 11:18:08;;;;;;;;;;;9.80;41.30;;;;;;5071780;28;19918;-77
2021/03/20 11:20:37;;;;;;;;;;;9.80;42.60;;;;;;5092863;28;20028;-76
2021/03/20 11:23:05;;;;;;;;;;;9.80;41.10;;;;;;5092489;28;19915;-77
2021/03/20 11:25:30;;;;;;;;;;;9.90;41.30;;;;;;5093177;28;19910;-76
2021/03/20 11:28:07;;;;;;;;;;;10.00;41.40;;;;;;5092419;28;20335;-76
2021/03/20 11:30:42;;;;;;;;;;;10.00;42.70;;;;;;5090370;28;19967;-76
2021/03/20 11:33:10;;;;;;;;;;;10.00;42.70;;;;;;5092601;28;20012;-86
2021/03/20 11:35:39;;;;;;;;;;;10.10;42.00;;;;;;5074434;28;19957;-80
2021/03/20 11:38:04;;;;;;;;;;;10.10;41.90;;;;;;5092913;28;19908;-79
2021/03/20 11:40:32;;;;;;;;;;;10.20;43.00;;;;;;5075303;28;20349;-79
2021/03/20 11:42:59;;;;;;;;;;;10.20;41.30;;;;;;5074711;28;19915;-79
2021/03/20 11:45:24;;;;;;;;;;;10.30;42.80;;;;;;5092989;28;20320;-80
2021/03/20 11:47:51;;;;;;;;;;;10.60;42.20;;;;;;5092855;28;19966;-79
2021/03/20 11:50:21;;;;;;;;;;;10.60;42.00;;;;;;5092951;28;19916;-79
2021/03/20 11:52:48;;;;;;;;;;;10.70;41.80;;;;;;5092801;28;19908;-79
2021/03/20 11:55:17;;;;;;;;;;;10.70;40.90;;;;;;5074723;28;19912;-79
2021/03/20 11:57:43;;;;;;;;;;;10.70;41.60;;;;;;5092645;28;19908;-79
2021/03/20 12:00:27;;;;;;;;;;;10.80;41.90;;;;;;5074883;28;20003;-79
2021/03/20 12:02:52;;;;;;;;;;;10.90;42.10;;;;;;5098995;28;19954;-79
2021/03/20 12:05:43;;;;;;;;;;;10.90;41.70;;;;;;5074605;28;19916;-80
2021/03/20 12:08:19;;;;;;;;;;;10.90;42.40;;;;;;5088016;28;19955;-80
2021/03/20 12:10:54;;;;;;;;;;;11.00;41.80;;;;;;5092641;28;20014;-80
2021/03/20 12:13:40;;;;;;;;;;;11.20;41.70;;;;;;5074989;28;20339;-80
2021/03/20 12:16:05;;;;;;;;;;;11.40;42.00;;;;;;5092408;28;19916;-81
2021/03/20 12:18:32;;;;;;;;;;;11.40;41.10;;;;;;5075313;28;19916;-81
2021/03/20 12:21:07;;;;;;;;;;;11.50;41.80;;;;;;5074838;28;19948;-81
2021/03/20 12:23:34;;;;;;;;;;;11.60;42.40;;;;;;5091682;28;19954;-80
2021/03/20 12:26:00;;;;;;;;;;;11.70;42.80;;;;;;5075146;28;19912;-80
2021/03/20 12:28:46;;;;;;;;;;;11.80;40.40;;;;;;5092982;28;19909;-80
2021/03/20 12:31:26;;;;;;;;;;;11.70;41.60;;;;;;5092744;28;20001;-81
2021/03/20 12:34:07;;;;;;;;;;;11.80;41.60;;;;;;5095657;28;19908;-83
2021/03/20 12:36:36;;;;;;;;;;;11.90;42.20;;;;;;5096701;28;19908;-83
2021/03/20 12:39:03;;;;;;;;;;;12.10;42.20;;;;;;5089757;28;19908;-83
2021/03/20 12:41:30;;;;;;;;;;;12.20;42.10;;;;;;5096483;28;20606;-83
2021/03/20 12:44:14;;;;;;;;;;;12.10;40.40;;;;;;5096403;28;19904;-83
2021/03/20 12:46:42;;;;;;;;;;;12.10;41.60;;;;;;5096326;28;19915;-82
2021/03/20 12:49:07;;;;;;;;;;;12.30;41.90;;;;;;5096155;28;20242;-83
2021/03/20 12:51:33;;;;;;;;;;;12.50;41.80;;;;;;5096099;28;19922;-84
2021/03/20 12:53:59;;;;;;;;;;;12.70;41.10;;;;;;5096123;28;19908;-82
2021/03/20 12:56:24;;;;;;;;;;;12.70;41.50;;;;;;5096512;28;19926;-82
2021/03/20 12:58:50;;;;;;;;;;;12.80;41.70;;;;;;5060642;28;19999;-82
2021/03/20 13:01:15;;;;;;;;;;;12.80;41.60;;;;;;5096509;28;19908;-82
2021/03/20 13:03:41;;;;;;;;;;;13.00;41.90;;;;;;5096082;28;20349;-83
2021/03/20 13:06:07;;;;;;;;;;;13.20;42.70;;;;;;5077704;28;19912;-82
2021/03/20 13:08:36;;;;;;;;;;;13.20;39.10;;;;;;5095934;28;20294;-82
2021/03/20 13:11:03;;;;;;;;;;;13.00;40.20;;;;;;5077974;28;19916;-82
2021/03/20 13:13:29;;;;;;;;;;;12.80;39.20;;;;;;5096062;28;20316;-82
2021/03/20 13:15:54;;;;;;;;;;;12.50;38.30;;;;;;5095811;28;19962;-82
2021/03/20 13:18:20;;;;;;;;;;;12.00;39.50;;;;;;5077569;28;20379;-83
2021/03/20 13:20:45;;;;;;;;;;;11.70;40.10;;;;;;5077297;28;19912;-82
2021/03/20 13:23:11;;;;;;;;;;;11.60;41.10;;;;;;5095910;28;19904;-82
2021/03/20 13:25:38;;;;;;;;;;;11.60;40.20;;;;;;5077516;28;19912;-83
2021/03/20 13:28:04;;;;;;;;;;;11.70;41.50;;;;;;5095224;28;19908;-83
2021/03/20 13:30:31;;;;;;;;;;;11.80;40.10;;;;;;5095293;28;19908;-81
2021/03/20 13:32:57;;;;;;;;;;;11.70;41.30;;;;;;5095090;28;19927;-82
2021/03/20 13:35:24;;;;;;;;;;;12.00;42.00;;;;;;5094966;28;20006;-84
2021/03/20 13:37:50;;;;;;;;;;;12.20;40.60;;;;;;5077394;28;19911;-85
2021/03/20 13:40:15;;;;;;;;;;;12.40;40.30;;;;;;5076930;28;19953;-85
2021/03/20 13:42:41;;;;;;;;;;;12.40;39.90;;;;;;5094780;28;19908;-85
2021/03/20 13:45:08;;;;;;;;;;;12.30;39.50;;;;;;5094965;28;20391;-83
2021/03/20 13:47:34;;;;;;;;;;;12.30;40.60;;;;;;5076711;28;19908;-81
2021/03/20 13:50:00;;;;;;;;;;;12.30;40.50;;;;;;5094614;28;20027;-84
2021/03/20 13:52:25;;;;;;;;;;;12.30;40.40;;;;;;5095442;28;20328;-83
2021/03/20 13:54:51;;;;;;;;;;;12.20;40.90;;;;;;5063957;28;19939;-84
2021/03/20 13:57:17;;;;;;;;;;;12.30;41.70;;;;;;5103455;28;20308;-83
2021/03/20 13:59:42;;;;;;;;;;;12.50;41.50;;;;;;5095057;28;19908;-82
2021/03/20 14:02:11;;;;;;;;;;;12.70;41.00;;;;;;5094907;28;19938;-82
2021/03/20 14:04:36;;;;;;;;;;;12.80;41.50;;;;;;5094496;28;19966;-77
2021/03/20 14:07:09;;;;;;;;;;;12.80;41.80;;;;;;5094856;28;19912;-78
2021/03/20 14:09:34;;;;;;;;;;;12.90;41.40;;;;;;5087241;28;20253;-78
2021/03/20 14:12:00;;;;;;;;;;;12.90;40.50;;;;;;5094453;28;19912;-78
2021/03/20 14:14:25;;;;;;;;;;;12.70;41.30;;;;;;5075731;28;19935;-78
2021/03/20 14:16:50;;;;;;;;;;;12.60;41.70;;;;;;5094702;28;19986;-77
2021/03/20 14:19:16;;;;;;;;;;;12.60;42.10;;;;;;5094767;28;20019;-78
2021/03/20 14:21:41;;;;;;;;;;;12.50;41.90;;;;;;5076149;28;20487;-78
2021/03/20 14:24:07;;;;;;;;;;;12.50;42.60;;;;;;5071371;28;20731;-78
2021/03/20 14:26:33;;;;;;;;;;;12.60;42.30;;;;;;5093946;28;19912;-78
2021/03/20 14:28:58;;;;;;;;;;;12.60;41.20;;;;;;5091448;28;19915;-79
2021/03/20 14:31:23;;;;;;;;;;;12.40;41.90;;;;;;5075036;28;19912;-78
2021/03/20 14:33:49;;;;;;;;;;;12.50;43.90;;;;;;5072615;28;19912;-81
2021/03/20 14:36:15;;;;;;;;;;;12.70;44.60;;;;;;5094374;28;19912;-82
2021/03/20 14:38:40;;;;;;;;;;;13.00;43.10;;;;;;5094294;28;19908;-82
2021/03/20 14:41:06;;;;;;;;;;;13.20;43.00;;;;;;5094496;28;19923;-82
2021/03/20 14:43:32;;;;;;;;;;;13.50;41.80;;;;;;5087054;28;19909;-79
2021/03/20 14:47:51;;;;;;;3.45;2.67;;;13.70;41.20;;;;;;5144825;27;20315;-79